Tiempo atmosférico en la estación meteorológica de Puerto El Pico, Ávila (1285 m.)



Fecha
DESCASC
Temp. máxima en grados centígrados (hora)
DESCASC
Temp. mínima en grados centígrados (hora)
DESCASC
Temp. media en grados centígrados
DESCASC
Racha de viento máxima en m/sg (hora)
DESCASC
Velocidad máxima media en intervalos de 10 minutos(hora)
DESCASC
Precipitaciones diarias en mm
DESCASC
Precipitaciones de 00:00 a 06:00 en mm
DESCASC
Precipitaciones de 06:00 a 12:00 en mm
DESCASC
Precipitaciones de 12:00 a 18:00 en mm
DESCASC
Precipitaciones de 18:00 a 24:00 en mm
DESCASC
19-09-2019 24.5 (17:20) 5.7 (07:30) 15.1 6.67 (14:40) 3.61 (16:50) 0 0 0 0 0
18-09-2019 23.5 (16:00) 5.4 (08:30) 14.5 7.22 (13:50) 4.44 (13:50) 1.8 0.2 0 0.4 1.2
17-09-2019 24.4 (16:10) 8.2 (00:00) 16.3 14.17 (18:50) 6.94 (19:10) 26.6 0 0 0 26.6
16-09-2019 20.5 (17:20) 9 (00:00) 14.8 5.28 (13:30) 3.33 (13:40) 8 0 0.2 7.8 0
15-09-2019 20.5 (15:30) 10.2 (00:00) 15.3 7.5 (19:20) 4.17 (19:30) 18.4 17.2 1 0 0.2
14-09-2019 15.8 (12:30) 11.1 (00:00) 13.5 6.94 (03:20) 3.33 (01:10) 6 3 0 2.6 0.4
13-09-2019 20 (12:40) 5.1 (00:00) 12.5 8.61 (12:50) 4.17 (12:50) 1.4 0 0 0.6 0.8
12-09-2019 24 (16:40) 2.4 (00:00) 13.2 9.17 (16:50) 4.17 (12:50) 0 0 0 0 0
11-09-2019 20.8 (17:50) 7.9 (00:00) 14.3 16.39 (02:20) 11.39 (02:20) 0.2 0.2 0 0 0
10-09-2019 15.8 (17:30) 6.8 (09:20) 11.3 16.39 (13:40) 10.28 (10:30) 0.2 0 0 0 0.2
09-09-2019 24.4 (16:30) 2.4 (08:10) 13.4 10.83 (17:40) 5.83 (13:10) 0 0 0 0 0
08-09-2019 25.8 (17:30) 1.6 (00:00) 13.7 8.33 (15:00) 4.72 (13:50) 0 0 0 0 0
07-09-2019 24.8 (17:30) -0.1 (00:00) 12.3 9.44 (15:10) 4.17 (14:20) 0 0 0 0 0
06-09-2019 23.5 (19:00) -0.4 (00:00) 11.5 8.33 (14:00) 5 (14:00) 0 0 0 0 0
05-09-2019 23.1 (16:10) 5 (00:00) 14.1 9.72 (17:20) 6.39 (16:40) 0 0 0 0 0
04-09-2019 30.3 (18:20) 5.4 (00:00) 17.8 6.67 (13:40) 3.61 (13:10) 0 0 0 0 0
03-09-2019 28.7 (16:00) 6.7 (00:00) 17.7 8.33 (18:30) 5 (18:30) 0 0 0 0 0
02-09-2019 26.7 (15:50) 7.5 (00:00) 17.1 8.61 (15:10) 5 (16:00) 0 0 0 0 0
01-09-2019 27.8 (18:50) 8 (00:00) 17.9 9.72 (15:20) 4.72 (14:10) 0 0 0 0 0
31-08-2019 28.3 (16:00) 7 (00:00) 17.6 7.22 (12:50) 4.44 (13:20) 0 0 0 0 0
30-08-2019 28.8 (14:30) 7.4 (00:00) 18.1 8.33 (14:50) 4.17 (14:50) 3.4 0 0 3.4 0
29-08-2019 28.8 (17:10) 7.5 (00:00) 18.1 8.61 (15:00) 4.44 (15:00) 0 0 0 0 0
28-08-2019 26.2 (17:10) 6 (00:00) 16.1 9.44 (14:30) 5 (14:40) 0 0 0 0 0
27-08-2019 22.1 (19:30) 4.6 (00:00) 13.4 7.78 (13:40) 4.17 (13:00) 0 0 0 0 0
26-08-2019 23.2 (15:40) 11 (00:00) 17.1 10.28 (20:30) 5 (18:10) 17.4 15.4 2 0 0
25-08-2019 28.2 (18:00) 8.4 (00:00) 18.3 9.17 (14:30) 5 (13:50) 1.4 0 0 0 1.4
24-08-2019 29.7 (17:10) 6.3 (00:00) 18 8.61 (16:00) 4.44 (12:50) 0 0 0 0 0
23-08-2019 29.4 (17:30) 4.4 (00:00) 16.9 8.33 (16:50) 4.17 (15:40) 0 0 0 0 0
22-08-2019 27.6 (18:00) 7.2 (00:00) 17.4 8.61 (17:30) 4.17 (16:30) 0 0 0 0 0
21-08-2019 26.2 (19:40) 10.3 (00:00) 18.3 8.06 (20:20) 3.61 (20:20) 0 0 0 0 0

Gráficas

Temp. máximas Temp. mínimas Temp. medias Precipitaciones Rachas de viento máximas Velocidades máximas media en intervalos de 10 minutos

Datos horarios

Fecha y hora oficial Temperatura (ºC) Velocidad del viento (km/h) Dirección del viento Racha (km/h) Dirección de racha Precipitación (mm) Presión (hPa) Tendencia (hPa) Humedad (%)
2019-09-19 23:00:00 10.4 3 Sur 9 Sudoeste 0 -- -- 91
2019-09-19 22:00:00 11.2 3 Sur 6 Sur 0 -- -- 87
2019-09-19 21:00:00 13.1 0 Calma 6 Sur 0 -- -- 79
2019-09-19 20:00:00 17.4 4 Sur 18 Sudoeste 0 -- -- 66
2019-09-19 19:00:00 23.3 8 Sudoeste 21 Sur 0 -- -- 44
2019-09-19 18:00:00 23.8 10 Sudoeste 22 Sur 0 -- -- 43
2019-09-19 17:00:00 23.4 11 Sur 23 Sudoeste 0 -- -- 40
2019-09-19 16:00:00 24 12 Sur 23 Sudoeste 0 -- -- 43
2019-09-19 15:00:00 23.1 12 Sudoeste 24 Sudoeste 0 -- -- 43
2019-09-19 14:00:00 22.4 12 Sur 22 Sudoeste 0 -- -- 47
2019-09-19 13:00:00 21.9 11 Sur 17 Sudoeste 0 -- -- 52
2019-09-19 12:00:00 21.1 9 Sur 14 Sur 0 -- -- 57
2019-09-19 11:00:00 17.1 3 Sudoeste 5 Sudoeste 0 -- -- 70
2019-09-19 10:00:00 12.1 0 Calma 2 Sur 0 -- -- 98
2019-09-19 09:00:00 6.4 0 Calma 6 Sur 0 -- -- 100
2019-09-19 08:00:00 5.7 2 Sur 6 Sudoeste 0 -- -- 100
2019-09-19 07:00:00 6.3 0 Calma 6 Sur 0 -- -- 100
2019-09-19 06:00:00 7 6 Sur 8 Sur 0 -- -- 100
2019-09-19 05:00:00 6.3 0 Calma 5 Sudoeste 0 -- -- 100
2019-09-19 04:00:00 6.9 3 Sur 3 Sur 0 -- -- 100
2019-09-19 03:00:00 7.7 0 Calma 3 Sur 0 -- -- 100
2019-09-19 02:00:00 7.9 3 Sur 5 Sudoeste 0 -- -- 100
2019-09-19 01:00:00 8.2 0 Calma 3 Sudeste 0 -- -- 100
2019-09-19 00:00:00 8.4 2 Sur 5 Sudeste 0 -- -- 99
2019-09-18 23:00:00 8.7 2 Sur 8 Sur 0 -- -- 98
2019-09-18 22:00:00 9.7 4 Sur 9 Sudeste 0.2 -- -- 97
2019-09-18 21:00:00 11.9 3 Sur 14 Sur 0 -- -- 93
2019-09-18 20:00:00 13.9 2 Oeste 18 Sudoeste 0.8 -- -- 92
2019-09-18 19:00:00 15.6 4 Sudeste 10 Sudoeste 0.2 -- -- 89
2019-09-18 18:00:00 17.4 5 Sur 17 Sudoeste 0.4 -- -- 86
2019-09-18 17:00:00 20.3 7 Sur 22 Sur 0 -- -- 61
2019-09-18 16:00:00 23.5 11 Sur 26 Sudoeste 0 -- -- 49
2019-09-18 15:00:00 21.7 14 Sur 26 Sudoeste 0 -- -- 52
2019-09-18 14:00:00 20.7 13 Sur 26 Sudoeste 0 -- -- 56
2019-09-18 13:00:00 20.5 12 Sur 20 Sudoeste 0 -- -- 56
2019-09-18 12:00:00 18.9 13 Sur 22 Sur 0 -- -- 60
2019-09-18 11:00:00 16.1 4 Nordeste 6 Norte 0 -- -- 73
2019-09-18 10:00:00 12.9 0 Calma 3 Sur 0 -- -- 93
2019-09-18 09:00:00 6.5 0 Calma 10 Sudoeste 0 -- -- 100
2019-09-18 08:00:00 5.7 3 Sur 8 Sur 0 -- -- 100
2019-09-18 07:00:00 6.5 3 Sur 6 Sur 0 -- -- 99
2019-09-18 06:00:00 7.4 5 Sur 8 Sudoeste 0 -- -- 99
2019-09-18 05:00:00 7.8 2 Sur 8 Sur 0 -- -- 99
2019-09-18 04:00:00 8.2 0 Calma 6 Sur 0 -- -- 98
2019-09-18 03:00:00 9.3 3 Sur 7 Sur 0.2 -- -- 98
2019-09-18 02:00:00 9.9 3 Sudeste 10 Este 0 -- -- 98
2019-09-18 01:00:00 10 0 Calma 14 Sur 0 -- -- 97
2019-09-18 00:00:00 10.8 7 Sur 14 Sudoeste 1.2 -- -- 95
2019-09-17 23:00:00 13.1 8 Oeste 27 Oeste 0 -- -- 74
2019-09-17 22:00:00 12 11 Oeste 28 Oeste 0.4 -- -- 82
2019-09-17 21:00:00 11 4 Nordeste 13 Sur 7.2 -- -- 97
2019-09-15 18:00:00 -- -- -- -- -- -- -- -- --
2019-09-15 17:00:00 20 6 Sur 14 Sudoeste 0 -- -- 59
2019-09-15 16:00:00 18.3 9 Sur 20 Sudoeste 0 -- -- 67
2019-09-15 15:00:00 18 12 Sur 22 Sur 0 -- -- 66
2019-09-15 14:00:00 17.3 10 Sur 22 Sudoeste 0 -- -- 71
2019-09-15 13:00:00 17.1 12 Sur 25 Sur 0 -- -- 75
2019-09-15 12:00:00 17.5 13 Sur 22 Sudoeste 0 -- -- 76
2019-09-15 11:00:00 16.6 3 Sur 12 Norte 0 -- -- 82
2019-09-15 10:00:00 14.2 3 Norte 11 Norte 0 -- -- 89
2019-09-15 09:00:00 12.3 5 Sudeste 13 Sudeste 0 -- -- 98
2019-09-15 08:00:00 12.3 0 Calma 9 Noroeste 0 -- -- 99
2019-09-15 07:00:00 12.5 3 Norte 10 Nordeste 1 -- -- 99
2019-09-15 06:00:00 12.3 4 Noroeste 21 Este 11.8 -- -- 99
2019-09-15 05:00:00 12.3 4 Nordeste 8 Norte 2.4 -- -- 99
2019-09-15 04:00:00 12.3 3 Sur 10 Sudoeste 2.6 -- -- 98
2019-09-15 03:00:00 11.9 0 Calma 5 Sudoeste 0.2 -- -- 98
2019-09-15 02:00:00 11.7 2 Sur 7 Este 0 -- -- 98
2019-09-15 01:00:00 11.8 2 Sudoeste 8 Norte 0.2 -- -- 97
2019-09-15 00:00:00 11.9 0 Calma 7 Norte 0 -- -- 97
2019-09-14 23:00:00 11.9 3 Norte 8 Norte 0 -- -- 97
2019-09-14 22:00:00 12.1 3 Sudoeste 10 Norte 0.4 -- -- 95
2019-09-14 21:00:00 12.4 2 Este 12 Nordeste 0 -- -- 91
2019-09-14 20:00:00 13.6 6 Nordeste 13 Este 0 -- -- 82
2019-09-14 19:00:00 14 4 Este 12 Nordeste 0 -- -- 86
2019-09-14 18:00:00 14 4 Norte 15 Sur 0 -- -- 86
2019-09-14 17:00:00 14 6 Sur 13 Sur 0 -- -- 83
2019-09-14 16:00:00 13.5 6 Nordeste 15 Este 1.6 -- -- 90
2019-09-14 15:00:00 13.2 4 Nordeste 14 Norte 0.6 -- -- 89
2019-09-14 14:00:00 14.3 5 Nordeste 21 Nordeste 0.4 -- -- 81
2019-09-14 13:00:00 15.2 9 Norte 23 Nordeste 0 -- -- 78
2019-09-14 12:00:00 15.1 7 Nordeste 21 Este 0 -- -- 78
2019-09-14 11:00:00 14.3 8 Nordeste 17 Nordeste 0 -- -- 83
2019-09-14 10:00:00 13.6 5 Norte 9 Norte 0 -- -- 92
2019-09-14 09:00:00 11.3 2 Sudeste 7 Nordeste 0 -- -- 97
2019-09-14 08:00:00 12.1 5 Sudeste 15 Noroeste 0 -- -- 95
2019-09-14 07:00:00 12.3 4 Norte 17 Nordeste 0 -- -- 95
2019-09-14 06:00:00 -- -- -- -- -- -- -- -- --
2019-09-14 05:00:00 11.9 4 Sudeste 14 Este 0 -- -- 96
2019-09-14 04:00:00 12.8 5 Este 25 Este 0 -- -- 92
2019-09-14 03:00:00 13 6 Sudeste 15 Sudeste 0.2 -- -- 93
2019-09-14 02:00:00 12.9 4 Nordeste 24 Nordeste 0 -- -- 94
2019-09-14 01:00:00 12.3 3 Nordeste 15 Nordeste 2.8 -- -- 98
2019-09-14 00:00:00 11.7 3 Norte 8 Sudeste 0.8 -- -- 95
2019-09-13 23:00:00 12 7 Norte 14 Este 0 -- -- 94
2019-09-13 22:00:00 12.1 6 Nordeste 17 Nordeste 0 -- -- 93
2019-09-13 21:00:00 12.5 9 Nordeste 18 Nordeste 0 -- -- 88
2019-09-13 20:00:00 13.3 4 Nordeste 14 Norte 0 -- -- 81
2019-09-13 19:00:00 13 5 Norte 21 Norte 0 -- -- 83
2019-09-13 18:00:00 13.4 7 Nordeste 29 Nordeste 0.2 -- -- 81
2019-09-13 17:00:00 12.7 12 Norte 24 Nordeste 0.4 -- -- 86
2019-09-13 16:00:00 14.3 11 Nordeste 23 Nordeste 0 -- -- 75
2019-09-13 15:00:00 15.8 4 Sudoeste 26 Nordeste 0 -- -- 57
2019-09-13 14:00:00 18.1 13 Nordeste 31 Nordeste 0 -- -- 49
2019-09-13 13:00:00 19.5 13 Nordeste 31 Nordeste 0 -- -- 41
2019-09-13 12:00:00 18.8 10 Nordeste 26 Nordeste 0 -- -- 43
2019-09-13 11:00:00 18.7 12 Nordeste 21 Nordeste 0 -- -- 44
2019-09-13 10:00:00 13.8 0 Calma 6 Sudeste 0 -- -- 77
2019-09-13 09:00:00 6.7 3 Sur 4 Sudeste 0 -- -- 99
2019-09-13 08:00:00 5.2 3 Sur 6 Sudeste 0 -- -- 99
2019-09-13 07:00:00 5.8 3 Sudeste 8 Sudeste 0 -- -- 99
2019-09-13 06:00:00 5.6 0 Calma 4 Sudeste 0 -- -- 98
2019-09-13 05:00:00 6 2 Sur 5 Sur 0 -- -- 97
2019-09-13 04:00:00 6.1 4 Sur 8 Sudoeste 0 -- -- 93
2019-09-13 03:00:00 7.5 0 Calma 8 Este 0 -- -- 91
2019-09-13 02:00:00 8.4 2 Sur 6 Sudoeste 0 -- -- 93
2019-09-13 01:00:00 8.4 3 Norte 10 Sur 0 -- -- 89
2019-09-13 00:00:00 8.5 6 Sudoeste 9 Sudoeste 0 -- -- 89
2019-09-12 23:00:00 10.6 0 Calma 10 Sur 0 -- -- 82
2019-09-12 22:00:00 11.2 3 Sur 8 Sur 0 -- -- 78
2019-09-12 21:00:00 13.2 3 Sudeste 7 Sudeste 0 -- -- 74
2019-09-12 20:00:00 17.8 4 Sur 22 Sur 0 -- -- 59
2019-09-12 19:00:00 18.8 5 Sur 27 Sudeste 0 -- -- 56
2019-09-12 18:00:00 21.5 6 Este 23 Nordeste 0 -- -- 44
2019-09-12 17:00:00 22.4 9 Este 33 Nordeste 0 -- -- 41
2019-09-12 16:00:00 23 10 Este 31 Nordeste 0 -- -- 40
2019-09-12 15:00:00 23.2 6 Sur 21 Este 0 -- -- 43
2019-09-12 14:00:00 20 10 Nordeste 23 Este 0 -- -- 48
2019-09-12 13:00:00 20.5 13 Nordeste 30 Nordeste 0 -- -- 46
2019-09-12 12:00:00 20.1 8 Nordeste 23 Norte 0 -- -- 47
2019-09-12 11:00:00 18.7 13 Norte 22 Norte 0 -- -- 50
2019-09-12 10:00:00 13.2 0 Calma 4 Nordeste 0 -- -- 70
2019-09-12 09:00:00 4 2 Sur 6 Sur 0 -- -- 98
2019-09-12 08:00:00 2.4 3 Sur 5 Sudoeste 0 -- -- 97
2019-09-12 07:00:00 3 2 Sudoeste 5 Sudoeste 0 -- -- 97
2019-09-12 06:00:00 3.3 3 Sur 5 Sudoeste 0 -- -- 97
2019-09-12 05:00:00 3.8 0 Calma 4 Sudoeste 0 -- -- 96
2019-09-12 04:00:00 4 2 Sudoeste 5 Sudoeste 0 -- -- 94
2019-09-12 03:00:00 5.2 2 Sudoeste 4 Sur 0 -- -- 88
2019-09-12 02:00:00 5.7 2 Sur 6 Sudeste 0 -- -- 89
2019-09-12 01:00:00 7.1 0 Calma 8 Sudeste 0 -- -- 80
2019-09-12 00:00:00 8.9 3 Sudeste 8 Sudeste 0 -- -- 77
2019-09-11 23:00:00 10.8 4 Sudeste 8 Sudeste 0 -- -- 69
2019-09-11 22:00:00 13.6 3 Sur 8 Sur 0 -- -- 60
2019-09-11 21:00:00 14.9 3 Norte 18 Norte 0 -- -- 56
2019-09-11 20:00:00 17.6 5 Nordeste 28 Norte 0 -- -- 47
2019-09-11 19:00:00 20 12 Nordeste 29 Nordeste 0 -- -- 41
2019-09-11 18:00:00 20.3 13 Nordeste 26 Norte 0 -- -- 41
2019-09-11 17:00:00 20.1 10 Norte 26 Este 0 -- -- 41
2019-09-11 16:00:00 20.3 8 Este 40 Norte 0 -- -- 40
2019-09-11 15:00:00 18.8 18 Nordeste 35 Norte 0 -- -- 45
2019-09-11 14:00:00 17.1 12 Nordeste 31 Este 0 -- -- 49
2019-09-11 13:00:00 15.7 10 Nordeste 26 Norte 0 -- -- 52
2019-09-11 12:00:00 14.1 15 Norte 34 Norte 0 -- -- 59
2019-09-11 11:00:00 11.8 25 Norte 46 Norte 0 -- -- 67
2019-09-11 10:00:00 9.4 34 Norte 49 Norte 0 -- -- 79
2019-09-11 09:00:00 8.9 24 Norte 37 Norte 0 -- -- 79
2019-09-11 08:00:00 8.2 20 Norte 35 Norte 0 -- -- 79
2019-09-11 07:00:00 8.5 18 Norte 36 Norte 0 -- -- 80
2019-09-11 06:00:00 8.3 28 Norte 46 Norte 0 -- -- 80
2019-09-11 05:00:00 8 29 Norte 48 Norte 0 -- -- 79
2019-09-11 04:00:00 8.2 20 Norte 48 Norte 0 -- -- 75
2019-09-11 03:00:00 8.5 31 Norte 59 Norte 0 -- -- 76
2019-09-11 02:00:00 8.6 36 Norte 53 Noroeste 0 -- -- 79
2019-09-11 01:00:00 9.5 30 Nordeste 49 Norte 0.2 -- -- 74
2019-09-11 00:00:00 8.4 20 Norte 33 Norte 0.2 -- -- 88
2019-09-10 23:00:00 8.3 5 Noroeste 32 Norte 0 -- -- 82
2019-09-10 22:00:00 11.4 24 Norte 35 Nordeste 0 -- -- 59
2019-09-10 21:00:00 10.6 29 Norte 46 Norte 0 -- -- 67
2019-09-10 20:00:00 13.1 26 Norte 50 Norte 0 -- -- 48
2019-09-10 19:00:00 14.4 32 Norte 55 Norte 0 -- -- 42
2019-09-10 18:00:00 13.7 32 Norte 49 Norte 0 -- -- 43
2019-09-10 17:00:00 15.2 30 Norte 51 Norte 0 -- -- 41
2019-09-10 16:00:00 15.2 28 Norte 51 Nordeste 0 -- -- 41
2019-09-10 15:00:00 15 33 Nordeste 55 Norte 0 -- -- 41
2019-09-10 14:00:00 13.5 36 Nordeste 59 Norte 0 -- -- 42
2019-09-10 13:00:00 13.5 35 Norte 51 Norte 0 -- -- 42
2019-09-10 12:00:00 12 33 Norte 54 Norte 0 -- -- 50
2019-09-10 11:00:00 9.1 36 Nordeste 50 Nordeste 0 -- -- 60
2019-09-10 10:00:00 8.5 33 Norte 50 Norte 0 -- -- 64
2019-09-10 09:00:00 7.1 31 Nordeste 44 Norte 0 -- -- 71
2019-09-10 08:00:00 7.8 16 Nordeste 41 Nordeste 0 -- -- 68
2019-09-10 07:00:00 8.6 31 Norte 45 Norte 0 -- -- 71
2019-09-10 06:00:00 9.1 19 Norte 31 Norte 0 -- -- 77
2019-09-10 05:00:00 9.8 21 Norte 31 Norte 0 -- -- 74
2019-09-10 04:00:00 10.2 10 Norte 30 Norte 0 -- -- 72
2019-09-10 03:00:00 11.6 12 Norte 25 Norte 0 -- -- 66
2019-09-10 02:00:00 12.4 6 Norte 15 Norte 0 -- -- 65
2019-09-10 01:00:00 12.8 5 Norte 18 Norte 0 -- -- 55
2019-09-10 00:00:00 14.2 8 Norte 18 Noroeste 0 -- -- 45
2019-09-09 23:00:00 15.5 4 Norte 14 Oeste 0 -- -- 39
2019-09-09 22:00:00 14.7 4 Sur 12 Sur 0 -- -- 42
2019-09-09 21:00:00 17.7 7 Sur 17 Sur 0 -- -- 34
2019-09-09 20:00:00 19.9 3 Norte 14 Norte 0 -- -- 31
2019-09-09 19:00:00 21.3 5 Oeste 25 Noroeste 0 -- -- 28
2019-09-09 18:00:00 22.6 10 Sudoeste 39 Sur 0 -- -- 24
2019-09-09 17:00:00 24 18 Sur 37 Sur 0 -- -- 26
2019-09-09 16:00:00 23.1 18 Sur 36 Sur 0 -- -- 28
2019-09-09 15:00:00 22.2 19 Sur 39 Sur 0 -- -- 30
2019-09-09 14:00:00 21.5 20 Sur 37 Sur 0 -- -- 34
2019-09-09 13:00:00 20.9 19 Sur 32 Sur 0 -- -- 37
2019-09-09 12:00:00 20.8 17 Sur 30 Sur 0 -- -- 37
2019-09-09 11:00:00 20.6 12 Sur 19 Sur 0 -- -- 39
2019-09-09 10:00:00 15.1 3 Sur 8 Sur 0 -- -- 53
2019-09-09 09:00:00 3.6 0 Calma 8 Sudoeste 0 -- -- 92
2019-09-09 08:00:00 2.6 0 Calma 4 Sur 0 -- -- 91
2019-09-09 07:00:00 2.9 0 Calma 6 Sur 0 -- -- 90
2019-09-09 06:00:00 3.4 3 Sur 6 Sudoeste 0 -- -- 89
2019-09-09 05:00:00 4.1 0 Calma 5 Sudoeste 0 -- -- 86
2019-09-09 04:00:00 5 2 Sur 5 Sudoeste 0 -- -- 83
2019-09-09 03:00:00 5.6 2 Sur 6 Sudeste 0 -- -- 81
2019-09-09 02:00:00 6.9 3 Sur 4 Sudoeste 0 -- -- 77
2019-09-09 01:00:00 7.8 0 Calma 6 Sur 0 -- -- 74
2019-09-09 00:00:00 9.1 2 Sur 5 Sudeste 0 -- -- 67
2019-09-08 23:00:00 11.3 4 Sudeste 8 Sudeste 0 -- -- 62
2019-09-08 22:00:00 13.8 3 Sur 6 Sudeste 0 -- -- 58
2019-09-08 21:00:00 19 0 Calma 12 Norte 0 -- -- 44
2019-09-08 20:00:00 21.3 7 Sur 14 Sur 0 -- -- 49
2019-09-08 19:00:00 22.7 4 Sur 15 Norte 0 -- -- 45
2019-09-08 18:00:00 22.6 12 Norte 18 Norte 0 -- -- 35
2019-09-08 17:00:00 22.1 10 Sur 22 Oeste 0 -- -- 47
2019-09-08 16:00:00 22.8 13 Sur 26 Sudoeste 0 -- -- 45
2019-09-08 15:00:00 23.8 15 Sur 30 Sur 0 -- -- 44
2019-09-08 14:00:00 23 13 Sur 28 Sur 0 -- -- 46
2019-09-08 13:00:00 21.7 15 Sudoeste 26 Sur 0 -- -- 47
2019-09-08 12:00:00 21.6 9 Sur 18 Sudoeste 0 -- -- 48
2019-09-08 11:00:00 18.5 3 Nordeste 6 Nordeste 0 -- -- 53
2019-09-08 10:00:00 13.3 0 Calma 3 Nordeste 0 -- -- 49
2019-09-08 09:00:00 3.5 0 Calma 4 Sur 0 -- -- 83
2019-09-08 08:00:00 1.8 0 Calma 3 Sur 0 -- -- 85
2019-09-08 07:00:00 1.7 0 Calma 4 Sudoeste 0 -- -- 86
2019-09-08 06:00:00 2.5 0 Calma 5 Sudeste 0 -- -- 80
2019-09-08 05:00:00 3.1 3 Sur 4 Sudeste 0 -- -- 77
2019-09-08 04:00:00 3.5 0 Calma 5 Sudoeste 0 -- -- 73
2019-09-08 03:00:00 4.3 0 Calma 5 Sur 0 -- -- 72
2019-09-08 02:00:00 5.1 0 Calma 4 Sur 0 -- -- 68
2019-09-08 01:00:00 7 0 Calma 5 Sudeste 0 -- -- 62
2019-09-08 00:00:00 8 3 Sur 8 Sudeste 0 -- -- 61
2019-09-07 23:00:00 9.8 4 Sur 9 Sudeste 0 -- -- 59
2019-09-07 22:00:00 12.1 6 Sur 9 Sudeste 0 -- -- 57
2019-09-07 21:00:00 16.7 4 Norte 11 Norte 0 -- -- 41
2019-09-07 20:00:00 21 4 Sur 17 Sur 0 -- -- 44
2019-09-07 19:00:00 22 10 Sur 21 Sudoeste 0 -- -- 41
2019-09-07 18:00:00 24.5 11 Sudoeste 24 Sudoeste 0 -- -- 37
2019-09-07 17:00:00 23.8 11 Sur 27 Sur 0 -- -- 37
2019-09-07 16:00:00 23.8 14 Sur 34 Sudoeste 0 -- -- 39
2019-09-07 15:00:00 23.5 13 Sur 27 Sudoeste 0 -- -- 41
2019-09-07 14:00:00 22.6 13 Sur 24 Sur 0 -- -- 45
2019-09-07 13:00:00 21.8 4 Este 13 Norte 0 -- -- 43
2019-09-07 12:00:00 19.9 10 Norte 15 Norte 0 -- -- 46
2019-09-07 11:00:00 16.5 6 Nordeste 9 Norte 0 -- -- 51
2019-09-07 10:00:00 12.6 0 Calma 4 Sur 0 -- -- 52
2019-09-07 09:00:00 1.5 0 Calma 6 Sur 0 -- -- 93
2019-09-07 08:00:00 0.2 0 Calma 6 Sur 0 -- -- 93
2019-09-07 07:00:00 0.2 3 Sur 5 Norte 0 -- -- 91
2019-09-07 06:00:00 0.9 3 Sur 6 Sur 0 -- -- 89
2019-09-07 05:00:00 1.3 0 Calma 4 Sudeste 0 -- -- 87
2019-09-07 04:00:00 2.2 4 Sur 6 Sudoeste 0 -- -- 84
2019-09-07 03:00:00 3 2 Sur 5 Sur 0 -- -- 79
2019-09-07 02:00:00 4.8 3 Sudeste 4 Sudeste 0 -- -- 72
2019-09-07 01:00:00 5.1 3 Sur 6 Sudeste 0 -- -- 68
2019-09-07 00:00:00 6 3 Sur 5 Sudeste 0 -- -- 62
2019-09-06 23:00:00 7.3 4 Sudeste 8 Sudeste 0 -- -- 56
2019-09-06 22:00:00 9.6 5 Sur 10 Sudeste 0 -- -- 49
2019-09-06 21:00:00 12.6 4 Sur 13 Nordeste 0 -- -- 44
2019-09-06 20:00:00 19.7 8 Nordeste 24 Oeste 0 -- -- 25
2019-09-06 19:00:00 23.5 8 Sur 25 Sur 0 -- -- 29
2019-09-06 18:00:00 23.1 12 Sur 24 Sudoeste 0 -- -- 30
2019-09-06 17:00:00 23 14 Sur 25 Sur 0 -- -- 31
2019-09-06 16:00:00 22.2 15 Sur 26 Sudoeste 0 -- -- 33
2019-09-06 15:00:00 21 15 Sur 29 Sudoeste 0 -- -- 35
2019-09-06 14:00:00 19.3 18 Sur 30 Sudoeste 0 -- -- 40
2019-09-06 13:00:00 18.3 15 Sur 26 Sur 0 -- -- 42
2019-09-06 12:00:00 17.5 12 Sur 20 Sudoeste 0 -- -- 44
2019-09-06 11:00:00 16.7 2 Nordeste 5 Norte 0 -- -- 41
2019-09-06 10:00:00 9.8 2 Nordeste 5 Sudeste 0 -- -- 68
2019-09-06 09:00:00 0.7 0 Calma 5 Sudeste 0 -- -- 99
2019-09-06 08:00:00 0 3 Sur 5 Sudeste 0 -- -- 98
2019-09-06 07:00:00 0.1 0 Calma 4 Sudoeste 0 -- -- 97
2019-09-06 06:00:00 1.3 0 Calma 5 Sudeste 0 -- -- 97
2019-09-06 05:00:00 2.2 0 Calma 5 Sudeste 0 -- -- 92
2019-09-06 04:00:00 3.7 2 Sur 6 Sudeste 0 -- -- 91
2019-09-06 03:00:00 4.8 2 Sur 10 Sudeste 0 -- -- 85
2019-09-06 02:00:00 6.4 6 Sur 10 Sudeste 0 -- -- 80
2019-09-06 01:00:00 6.6 4 Sudeste 8 Sudeste 0 -- -- 77
2019-09-06 00:00:00 8.9 3 Nordeste 8 Nordeste 0 -- -- 66
2019-09-05 23:00:00 8.6 5 Nordeste 8 Norte 0 -- -- 62
2019-09-05 22:00:00 11.1 6 Norte 10 Noroeste 0 -- -- 54
2019-09-05 21:00:00 14.2 6 Nordeste 20 Norte 0 -- -- 47
2019-09-05 20:00:00 18.8 13 Norte 26 Norte 0 -- -- 31
2019-09-05 19:00:00 21.6 15 Norte 29 Norte 0 -- -- 29
2019-09-05 18:00:00 22.2 19 Norte 35 Norte 0 -- -- 32
2019-09-05 17:00:00 23 14 Norte 33 Norte 0 -- -- 37
2019-09-05 16:00:00 22.9 19 Norte 31 Norte 0 -- -- 37
2019-09-05 15:00:00 22 12 Nordeste 28 Nordeste 0 -- -- 41
2019-09-05 14:00:00 21.5 10 Nordeste 24 Este 0 -- -- 40
2019-09-05 13:00:00 20.5 11 Nordeste 23 Nordeste 0 -- -- 42
2019-09-05 12:00:00 19.5 12 Nordeste 20 Nordeste 0 -- -- 45
2019-09-05 11:00:00 19.1 8 Nordeste 15 Noroeste 0 -- -- 46
2019-09-05 10:00:00 15.1 4 Nordeste 6 Norte 0 -- -- 65
2019-09-05 09:00:00 6.7 0 Calma 3 Sudeste 0 -- -- 91
2019-09-05 08:00:00 5.9 0 Calma 3 Sudeste 0 -- -- 89
2019-09-05 07:00:00 5.8 2 Norte 4 Norte 0 -- -- 87
2019-09-05 06:00:00 6.6 0 Calma 5 Nordeste 0 -- -- 84
2019-09-05 05:00:00 7 0 Calma 4 Sur 0 -- -- 81
2019-09-05 04:00:00 7.9 0 Calma 5 Sur 0 -- -- 76
2019-09-05 03:00:00 8.8 0 Calma 5 Sur 0 -- -- 70
2019-09-05 02:00:00 9.9 3 Sur 8 Sudeste 0 -- -- 66
2019-09-05 01:00:00 11.1 4 Sudeste 8 Sudeste 0 -- -- 57
2019-09-05 00:00:00 11.1 4 Sur 7 Sudeste 0 -- -- 54
2019-09-04 23:00:00 13.3 3 Sur 8 Sudeste 0 -- -- 47
2019-09-04 22:00:00 15.3 4 Sur 8 Sudeste 0 -- -- 44
2019-09-04 21:00:00 17.7 4 Sur 10 Norte 0 -- -- 42
2019-09-04 20:00:00 24 9 Norte 19 Norte 0 -- -- 28
2019-09-04 19:00:00 28.2 8 Norte 17 Norte 0 -- -- 20
2019-09-04 18:00:00 29.7 7 Sudoeste 21 Sur 0 -- -- 23
2019-09-04 17:00:00 29 12 Sudoeste 23 Sur 0 -- -- 23
2019-09-04 16:00:00 29.2 9 Sudoeste 21 Sudoeste 0 -- -- 24
2019-09-04 15:00:00 28.5 9 Sur 24 Sur 0 -- -- 22
2019-09-04 14:00:00 26.9 12 Sur 24 Sur 0 -- -- 27
2019-09-04 13:00:00 27 8 Oeste 16 Sur 0 -- -- 26
2019-09-04 12:00:00 26.2 7 Nordeste 14 Nordeste 0 -- -- 28
2019-09-04 11:00:00 24.7 0 Calma 5 Norte 0 -- -- 42
2019-09-04 10:00:00 18.6 0 Calma 7 Sudeste 0 -- -- 53
2019-09-04 09:00:00 7.1 2 Sudeste 5 Sur 0 -- -- 88
2019-09-04 08:00:00 6 3 Sur 5 Sur 0 -- -- 90
2019-09-04 07:00:00 6.2 0 Calma 6 Sudoeste 0 -- -- 90
2019-09-04 06:00:00 6.2 2 Sur 3 Sur 0 -- -- 87
2019-09-04 05:00:00 6.7 0 Calma 4 Sur 0 -- -- 84
2019-09-04 04:00:00 7.5 4 Sur 5 Sudoeste 0 -- -- 85
2019-09-04 03:00:00 8.2 0 Calma 5 Sur 0 -- -- 82
2019-09-04 02:00:00 8.9 0 Calma 3 Sur 0 -- -- 79
2019-09-04 01:00:00 10.2 0 Calma 3 Sur 0 -- -- 72
2019-09-04 00:00:00 11.5 2 Sur 6 Sudeste 0 -- -- 67
2019-09-03 23:00:00 13.1 3 Sur 8 Sudeste 0 -- -- 62
2019-09-03 22:00:00 15.8 5 Sur 10 Sudeste 0 -- -- 53
2019-09-03 21:00:00 18 3 Sur 15 Norte 0 -- -- 48
2019-09-03 20:00:00 23.7 12 Norte 26 Norte 0 -- -- 33
2019-09-03 19:00:00 26.6 11 Norte 30 Norte 0 -- -- 29
2019-09-03 18:00:00 28.2 6 Norte 17 Nordeste 0 -- -- 29
2019-09-03 17:00:00 26.4 5 Sur 23 Sur 0 -- -- 42
2019-09-03 16:00:00 28.7 13 Sur 26 Sudoeste 0 -- -- 39
2019-09-03 15:00:00 27.1 10 Sur 24 Sur 0 -- -- 41
2019-09-03 14:00:00 26.9 13 Sudoeste 27 Sudoeste 0 -- -- 42
2019-09-03 13:00:00 25.3 12 Sur 26 Sur 0 -- -- 46
2019-09-03 12:00:00 25.7 14 Sur 22 Sudeste 0 -- -- 44
2019-09-03 11:00:00 23.4 2 Nordeste 5 Nordeste 0 -- -- 46
2019-09-03 10:00:00 18.5 0 Calma 3 Sudeste 0 -- -- 64
2019-09-03 09:00:00 8.6 0 Calma 4 Sudoeste 0 -- -- 97
2019-09-03 08:00:00 7 3 Sur 4 Sur 0 -- -- 98
2019-09-03 07:00:00 7.4 0 Calma 4 Sudoeste 0 -- -- 95
2019-09-03 06:00:00 7.5 0 Calma 4 Sur 0 -- -- 95
2019-09-03 05:00:00 7.7 0 Calma 3 Sur 0 -- -- 94
2019-09-03 04:00:00 8.7 0 Calma 3 Sur 0 -- -- 93
2019-09-03 03:00:00 9.5 0 Calma 3 Sur 0 -- -- 89
2019-09-03 02:00:00 10 2 Sur 4 Sur 0 -- -- 87
2019-09-03 01:00:00 10.7 0 Calma 4 Sudoeste 0 -- -- 84
2019-09-03 00:00:00 12.1 3 Sudeste 7 Sudeste 0 -- -- 80
2019-09-02 23:00:00 13 3 Sur 7 Sudeste 0 -- -- 79
2019-09-02 22:00:00 14.8 0 Calma 7 Sudeste 0 -- -- 74
2019-09-02 21:00:00 18 3 Sudeste 14 Este 0 -- -- 63
2019-09-02 20:00:00 22.6 10 Este 18 Oeste 0 -- -- 50
2019-09-02 19:00:00 26.4 6 Norte 15 Sudoeste 0 -- -- 42
2019-09-02 18:00:00 24.1 9 Norte 13 Norte 0 -- -- 48
2019-09-02 17:00:00 23.5 10 Norte 24 Norte 0 -- -- 50
2019-09-02 16:00:00 23.9 18 Norte 31 Sur 0 -- -- 52
2019-09-02 15:00:00 26.6 14 Sur 30 Sudoeste 0 -- -- 43
2019-09-02 14:00:00 25.8 13 Sudoeste 26 Sudoeste 0 -- -- 45
2019-09-02 13:00:00 24.9 12 Sur 22 Sur 0 -- -- 47
2019-09-02 12:00:00 23.4 10 Norte 17 Norte 0 -- -- 54
2019-09-02 11:00:00 20.9 7 Norte 16 Norte 0 -- -- 59
2019-09-02 10:00:00 18.7 0 Calma 4 Sudeste 0 -- -- 65
2019-09-02 09:00:00 10.1 0 Calma 3 Sudeste 0 -- -- 99
2019-09-02 08:00:00 8 2 Sur 4 Sur 0 -- -- 99
2019-09-02 07:00:00 7.9 0 Calma 5 Sudoeste 0 -- -- 99
2019-09-02 06:00:00 8.3 0 Calma 5 Sudoeste 0 -- -- 97
2019-09-02 05:00:00 8.9 0 Calma 5 Sudoeste 0 -- -- 96
2019-09-02 04:00:00 9.2 0 Calma 6 Sur 0 -- -- 93
2019-09-02 03:00:00 10.2 0 Calma 4 Sudoeste 0 -- -- 93
2019-09-02 02:00:00 11.2 2 Sudoeste 8 Sudoeste 0 -- -- 89
2019-09-02 01:00:00 12.6 3 Sudoeste 10 Sur 0 -- -- 85
2019-09-02 00:00:00 12.4 3 Sur 6 Sur 0 -- -- 86
2019-09-01 23:00:00 13.6 4 Sur 7 Sudoeste 0 -- -- 80
2019-09-01 22:00:00 16.3 4 Sur 6 Sudoeste 0 -- -- 72
2019-09-01 21:00:00 19.7 2 Sudeste 22 Norte 0 -- -- 61
2019-09-01 20:00:00 23.5 9 Norte 23 Nordeste 0 -- -- 50
2019-09-01 19:00:00 27 10 Norte 25 Norte 0 -- -- 39
2019-09-01 18:00:00 25.9 9 Oeste 21 Sudoeste 0 -- -- 38
2019-09-01 17:00:00 25.9 6 Oeste 25 Sur 0 -- -- 38
2019-09-01 16:00:00 25.7 5 Oeste 35 Sudeste 0 -- -- 38
2019-09-01 15:00:00 25.1 10 Sur 27 Sur 0 -- -- 41
2019-09-01 14:00:00 27 14 Sur 31 Sur 0 -- -- 38
2019-09-01 13:00:00 26.9 14 Sur 29 Sur 0 -- -- 38
2019-09-01 12:00:00 26.2 14 Sur 22 Sur 0 -- -- 39
2019-09-01 11:00:00 23.3 3 Sudoeste 8 Sudoeste 0 -- -- 50
2019-09-01 10:00:00 19 0 Calma 5 Sudoeste 0 -- -- 63
2019-09-01 09:00:00 9.9 0 Calma 5 Sur 0 -- -- 96
2019-09-01 08:00:00 8.1 2 Sur 5 Sur 0 -- -- 97
2019-09-01 07:00:00 8.1 0 Calma 5 Sur 0 -- -- 96
2019-09-01 06:00:00 8.8 3 Sur 4 Sudoeste 0 -- -- 96
2019-09-01 05:00:00 9.3 0 Calma 4 Sudeste 0 -- -- 91
2019-09-01 04:00:00 10.1 0 Calma 6 Sudoeste 0 -- -- 89
2019-09-01 03:00:00 10.4 0 Calma 7 Sur 0 -- -- 88
2019-09-01 02:00:00 10.7 0 Calma 13 Sudoeste 0 -- -- 87
2019-09-01 01:00:00 10.8 2 Sudeste 7 Sur 0 -- -- 86
2019-09-01 00:00:00 11.7 2 Sur 6 Sur 0 -- -- 83
2019-08-31 23:00:00 12.9 3 Sur 7 Sur 0 -- -- 77
2019-08-31 22:00:00 14.5 6 Sur 9 Sudoeste 0 -- -- 72
2019-08-31 21:00:00 18.6 6 Sur 10 Sudoeste 0 -- -- 67
2019-08-31 20:00:00 23.1 3 Sudoeste 8 Sur 0 -- -- 55
2019-08-31 19:00:00 23.1 5 Sudoeste 12 Sur 0 -- -- 60
2019-08-31 18:00:00 21.2 10 Sur 17 Norte 0 -- -- 68
2019-08-31 17:00:00 26.8 10 Sur 24 Sudoeste 0 -- -- 34
2019-08-31 16:00:00 28.3 9 Sudoeste 26 Sudoeste 0 -- -- 34
2019-08-31 15:00:00 26.1 12 Sur 23 Sudoeste 0 -- -- 37
2019-08-31 14:00:00 23.7 12 Sur 25 Sur 0 -- -- 43
2019-08-31 13:00:00 24.9 15 Sur 26 Sudoeste 0 -- -- 40
2019-08-31 12:00:00 24.6 12 Sur 22 Sudoeste 0 -- -- 42
2019-08-31 11:00:00 21.6 3 Norte 5 Nordeste 0 -- -- 55
2019-08-31 10:00:00 17.1 0 Calma 2 Norte 0 -- -- 67
2019-08-31 09:00:00 8.9 0 Calma 5 Sur 0 -- -- 100
2019-08-31 08:00:00 7.1 0 Calma 5 Sudoeste 0 -- -- 98
2019-08-31 07:00:00 7.2 0 Calma 6 Sur 0 -- -- 98
2019-08-31 06:00:00 7.4 2 Sur 6 Sur 0 -- -- 99
2019-08-31 05:00:00 7.8 0 Calma 6 Sur 0 -- -- 99
2019-08-31 04:00:00 7.9 3 Sur 7 Sudoeste 0 -- -- 98
2019-08-31 03:00:00 8.4 4 Sur 7 Sur 0 -- -- 96
2019-08-31 02:00:00 9.4 3 Sudoeste 8 Sudoeste 0 -- -- 96
2019-08-31 01:00:00 9.8 4 Sur 8 Sur 0 -- -- 96
2019-08-31 00:00:00 10.1 2 Sur 8 Sudeste 0 -- -- 95
2019-08-30 23:00:00 11.2 6 Sur 9 Sudoeste 0 -- -- 93
2019-08-30 22:00:00 12 3 Sudeste 8 Sur 0 -- -- 92
2019-08-30 21:00:00 14.9 3 Sur 9 Sur 0 -- -- 86
2019-08-30 20:00:00 19.3 4 Sudoeste 10 Norte 0 -- -- 75
2019-08-30 19:00:00 18.7 3 Norte 12 Nordeste 0 -- -- 84
2019-08-30 18:00:00 17.1 3 Sur 16 Sur 0.2 -- -- 89
2019-08-30 17:00:00 15.6 6 Sudeste 21 Norte 3.2 -- -- 90
2019-08-30 16:00:00 24.9 7 Norte 28 Sudoeste 0 -- -- 29
2019-08-30 15:00:00 28.6 14 Sudoeste 30 Sudoeste 0 -- -- 34
2019-08-30 14:00:00 27.9 14 Sur 27 Sudoeste 0 -- -- 36
2019-08-30 13:00:00 27.2 13 Sur 22 Sudoeste 0 -- -- 36
2019-08-30 12:00:00 27.1 2 Nordeste 6 Norte 0 -- -- 40
2019-08-30 11:00:00 23.5 2 Norte 5 Norte 0 -- -- 46
2019-08-30 10:00:00 18.2 0 Calma 4 Norte 0 -- -- 63
2019-08-30 09:00:00 10 0 Calma 4 Sur 0 -- -- 95
2019-08-30 08:00:00 7.9 2 Sur 8 Sur 0 -- -- 97
2019-08-30 07:00:00 8.3 3 Sur 5 Sur 0 -- -- 96
2019-08-30 06:00:00 8.4 0 Calma 5 Sur 0 -- -- 94
2019-08-30 05:00:00 8.9 2 Sur 5 Sur 0 -- -- 94
2019-08-30 04:00:00 9.6 0 Calma 6 Sur 0 -- -- 91
2019-08-30 03:00:00 9.4 6 Sudoeste 9 Sur 0 -- -- 90
2019-08-30 02:00:00 10.5 0 Calma 4 Sudoeste 0 -- -- 86
2019-08-30 01:00:00 11.1 4 Sur 5 Sur 0 -- -- 84
2019-08-30 00:00:00 12.5 0 Calma 5 Sudoeste 0 -- -- 78
2019-08-29 23:00:00 13.9 3 Sur 9 Sudoeste 0 -- -- 74
2019-08-29 22:00:00 17 3 Sudoeste 13 Sur 0 -- -- 64
2019-08-29 21:00:00 20.1 5 Este 9 Nordeste 0 -- -- 60
2019-08-29 20:00:00 26.9 6 Sur 19 Sur 0 -- -- 34
2019-08-29 19:00:00 27.9 11 Sudoeste 21 Sudoeste 0 -- -- 31
2019-08-29 18:00:00 27.7 12 Sur 26 Sudoeste 0 -- -- 32
2019-08-29 17:00:00 28.7 14 Sur 30 Sur 0 -- -- 32
2019-08-29 16:00:00 27.9 14 Sur 30 Sur 0 -- -- 34
2019-08-29 15:00:00 27.2 16 Sur 31 Sur 0 -- -- 36
2019-08-29 14:00:00 26.6 12 Sur 26 Sur 0 -- -- 36
2019-08-29 13:00:00 26.5 12 Sur 22 Sudeste 0 -- -- 37
2019-08-29 12:00:00 26.3 10 Sur 19 Sudoeste 0 -- -- 38
2019-08-29 11:00:00 23.3 3 Nordeste 4 Nordeste 0 -- -- 49
2019-08-29 10:00:00 18.4 0 Calma 3 Nordeste 0 -- -- 71
2019-08-29 09:00:00 10.3 0 Calma 6 Sudoeste 0 -- -- 99
2019-08-29 08:00:00 7.6 0 Calma 4 Sudeste 0 -- -- 99
2019-08-29 07:00:00 8.1 0 Calma 6 Sur 0 -- -- 97
2019-08-29 06:00:00 8.3 0 Calma 3 Sur 0 -- -- 98
2019-08-29 05:00:00 8.9 2 Sur 6 Sur 0 -- -- 96
2019-08-29 04:00:00 9.6 0 Calma 4 Sur 0 -- -- 92
2019-08-29 03:00:00 9.7 0 Calma 4 Sudeste 0 -- -- 94
2019-08-29 02:00:00 10.7 0 Calma 5 Sur 0 -- -- 91
2019-08-29 01:00:00 11.6 2 Sur 4 Sur 0 -- -- 88
2019-08-29 00:00:00 12.5 2 Sur 5 Sudoeste 0 -- -- 82
2019-08-28 23:00:00 13.8 3 Sur 6 Sudeste 0 -- -- 78
2019-08-28 22:00:00 16.6 4 Sudoeste 9 Sur 0 -- -- 67
2019-08-28 21:00:00 19.7 6 Sur 18 Sur 0 -- -- 55
2019-08-28 20:00:00 22.8 11 Sur 22 Sur 0 -- -- 47
2019-08-28 19:00:00 25.8 12 Sur 26 Sur 0 -- -- 40
2019-08-28 18:00:00 26.2 14 Sur 27 Sudoeste 0 -- -- 40
2019-08-28 17:00:00 25.9 15 Sur 29 Sudoeste 0 -- -- 41
2019-08-28 16:00:00 26 15 Sur 32 Sur 0 -- -- 41
2019-08-28 15:00:00 24.6 17 Sur 34 Sur 0 -- -- 44
2019-08-28 14:00:00 24 14 Sur 29 Sudoeste 0 -- -- 46
2019-08-28 13:00:00 23.3 14 Sur 24 Sur 0 -- -- 47
2019-08-28 12:00:00 23.1 12 Sur 19 Sudoeste 0 -- -- 47
2019-08-28 11:00:00 23 0 Calma 4 Nordeste 0 -- -- 53
2019-08-28 10:00:00 16.8 0 Calma 3 Sudeste 0 -- -- 74
2019-08-28 09:00:00 8.5 0 Calma 4 Sudoeste 0 -- -- 100
2019-08-28 08:00:00 6.5 0 Calma 3 Sur 0 -- -- 100
2019-08-28 07:00:00 6.3 0 Calma 4 Sur 0 -- -- 100
2019-08-28 06:00:00 6.9 0 Calma 4 Sur 0 -- -- 100
2019-08-28 05:00:00 7.2 3 Sur 6 Sur 0 -- -- 100
2019-08-28 04:00:00 7.2 0 Calma 4 Sudoeste 0 -- -- 99
2019-08-28 03:00:00 7.6 3 Sur 5 Sur 0 -- -- 99
2019-08-28 02:00:00 7.7 0 Calma 7 Sur 0 -- -- 97
2019-08-28 01:00:00 8.6 4 Sur 6 Sur 0 -- -- 96
2019-08-28 00:00:00 9.4 2 Sur 6 Sur 0 -- -- 94
2019-08-27 23:00:00 11.1 2 Sur 9 Sur 0 -- -- 90
2019-08-27 22:00:00 12.1 4 Sur 8 Sudoeste 0 -- -- 86
2019-08-27 21:00:00 15.5 4 Sur 12 Sudoeste 0 -- -- 77
2019-08-27 20:00:00 20.9 6 Sudoeste 13 Sur 0 -- -- 57
2019-08-27 19:00:00 20.7 9 Sur 17 Sur 0 -- -- 58
2019-08-27 18:00:00 19.7 8 Sur 22 Sudoeste 0 -- -- 60
2019-08-27 17:00:00 20.1 12 Sur 24 Sudoeste 0 -- -- 58
2019-08-27 16:00:00 21.2 11 Sur 23 Sudoeste 0 -- -- 54
2019-08-27 15:00:00 20.3 11 Sur 24 Sudoeste 0 -- -- 57
2019-08-27 14:00:00 19.8 11 Sur 28 Sur 0 -- -- 57
2019-08-27 13:00:00 19.2 15 Sur 27 Sudoeste 0 -- -- 60
2019-08-27 12:00:00 18.2 12 Sur 24 Sur 0 -- -- 63
2019-08-27 11:00:00 18.1 11 Sur 17 Sur 0 -- -- 64
2019-08-27 10:00:00 14.5 2 Norte 4 Norte 0 -- -- 74
2019-08-27 09:00:00 7.1 0 Calma 5 Sur 0 -- -- 100
2019-08-27 08:00:00 4.9 4 Sur 6 Sudoeste 0 -- -- 99
2019-08-27 07:00:00 5 4 Sudoeste 7 Sudoeste 0 -- -- 99
2019-08-27 06:00:00 5.6 0 Calma 7 Sur 0 -- -- 97
2019-08-27 05:00:00 6.4 0 Calma 5 Este 0 -- -- 98
2019-08-27 04:00:00 7.4 3 Sur 6 Sur 0 -- -- 97
2019-08-27 03:00:00 8.9 4 Sudeste 13 Norte 0 -- -- 95
2019-08-27 02:00:00 10.8 5 Noroeste 16 Sudoeste 0 -- -- 86
2019-08-27 01:00:00 8.9 3 Este 9 Sur 0 -- -- 94
2019-08-27 00:00:00 11.4 7 Sur 10 Sur 0 -- -- 87
2019-08-26 23:00:00 11.3 2 Sudeste 16 Sur 0 -- -- 85
2019-08-26 22:00:00 14.3 13 Sur 32 Sur 0 -- -- 74
2019-08-26 21:00:00 15.5 6 Sur 37 Sur 0 -- -- 60
2019-08-26 20:00:00 17.4 3 Norte 17 Nordeste 0 -- -- 59
2019-08-26 19:00:00 17.3 7 Oeste 33 Oeste 0 -- -- 52
2019-08-26 18:00:00 18 12 Noroeste 27 Norte 0 -- -- 50
2019-08-26 17:00:00 20.5 10 Sudoeste 28 Sudoeste 0 -- -- 57
2019-08-26 16:00:00 22 12 Sudoeste 24 Sudoeste 0 -- -- 52
2019-08-26 15:00:00 20.9 10 Sur 19 Sur 0 -- -- 60
2019-08-26 14:00:00 19.4 7 Nordeste 15 Norte 0 -- -- 67
2019-08-26 13:00:00 18.1 4 Nordeste 17 Nordeste 0 -- -- 71
2019-08-26 12:00:00 16.6 12 Nordeste 19 Nordeste 0 -- -- 77
2019-08-26 11:00:00 15.4 6 Norte 17 Noroeste 0 -- -- 83
2019-08-26 10:00:00 14.3 10 Norte 17 Norte 0 -- -- 93
2019-08-26 09:00:00 13.6 9 Norte 16 Noroeste 0 -- -- 94
2019-08-26 08:00:00 13.1 9 Norte 21 Norte 0 -- -- 94
2019-08-26 07:00:00 12.5 5 Norte 17 Norte 2 -- -- 96
2019-08-26 06:00:00 12.8 3 Oeste 25 Oeste 8.6 -- -- 96
2019-08-26 05:00:00 13.2 4 Oeste 15 Nordeste 0.2 -- -- 95
2019-08-26 04:00:00 13.3 5 Norte 18 Norte 0 -- -- 93
2019-08-26 03:00:00 13 6 Norte 12 Noroeste 0 -- -- 93
2019-08-26 02:00:00 13.4 5 Nordeste 25 Nordeste 1.6 -- -- 91
2019-08-26 01:00:00 13.9 4 Sudeste 19 Este 5 -- -- 95
2019-08-26 00:00:00 14.7 3 Sudeste 17 Sudoeste 0.8 -- -- 88
2019-08-25 23:00:00 15.5 6 Nordeste 22 Norte 0.6 -- -- 82
2019-08-25 22:00:00 20.3 8 Sur 22 Sudeste 0 -- -- 49
2019-08-25 21:00:00 20.8 3 Sur 26 Este 0 -- -- 40
2019-08-25 20:00:00 23.3 3 Sudoeste 25 Sur 0 -- -- 40
2019-08-25 19:00:00 25.6 14 Sur 28 Sudoeste 0 -- -- 40
2019-08-25 18:00:00 28.2 14 Sur 33 Sudoeste 0 -- -- 32
2019-08-25 17:00:00 26.6 13 Sur 31 Sudoeste 0 -- -- 33
2019-08-25 16:00:00 27.7 16 Sur 32 Sur 0 -- -- 34
2019-08-25 15:00:00 26.5 14 Sur 33 Sudoeste 0 -- -- 37
2019-08-25 14:00:00 25.7 15 Sur 32 Sur 0 -- -- 38
2019-08-25 13:00:00 24.7 17 Sur 32 Sudoeste 0 -- -- 40
2019-08-25 12:00:00 24.7 15 Sur 28 Sur 0 -- -- 38
2019-08-25 11:00:00 23.5 3 Nordeste 5 Nordeste 0 -- -- 42
2019-08-25 10:00:00 17.3 0 Calma 2 Norte 0 -- -- 46
2019-08-25 09:00:00 11.7 0 Calma 6 Sudeste 0 -- -- 64
2019-08-25 08:00:00 8.4 3 Sur 10 Sudoeste 0 -- -- 73
2019-08-25 07:00:00 9 0 Calma 5 Sur 0 -- -- 69
2019-08-25 06:00:00 10.1 2 Sur 10 Sudeste 0 -- -- 65
2019-08-25 05:00:00 10.9 5 Nordeste 10 Sudoeste 0 -- -- 64
2019-08-25 04:00:00 10.8 0 Calma 3 Sur 0 -- -- 64
2019-08-25 03:00:00 11.1 2 Sur 4 Sur 0 -- -- 62
2019-08-25 02:00:00 11.8 0 Calma 5 Sur 0 -- -- 60
2019-08-25 01:00:00 13.4 2 Sur 6 Sudoeste 0 -- -- 55
2019-08-25 00:00:00 14.9 2 Sur 7 Sur 0 -- -- 50
2019-08-24 23:00:00 17.2 4 Sur 13 Sudoeste 0 -- -- 45
2019-08-24 22:00:00 22.1 9 Sur 13 Sur 0 -- -- 33
2019-08-24 21:00:00 23.4 9 Sur 18 Sudoeste 0 -- -- 32
2019-08-24 20:00:00 27.4 10 Sur 24 Oeste 0 -- -- 27
2019-08-24 19:00:00 29 11 Sur 24 Sudoeste 0 -- -- 25
2019-08-24 18:00:00 29.6 13 Sur 30 Sur 0 -- -- 25
2019-08-24 17:00:00 29.5 14 Sur 31 Sudoeste 0 -- -- 25
2019-08-24 16:00:00 29 13 Sudoeste 31 Sur 0 -- -- 26
2019-08-24 15:00:00 28.7 14 Sur 26 Sur 0 -- -- 26
2019-08-24 14:00:00 27.6 14 Sur 28 Sur 0 -- -- 27
2019-08-24 13:00:00 26.5 14 Sur 28 Sudoeste 0 -- -- 28
2019-08-24 12:00:00 26.6 13 Sur 23 Sur 0 -- -- 26
2019-08-24 11:00:00 23.6 4 Norte 8 Norte 0 -- -- 34
2019-08-24 10:00:00 18.4 0 Calma 3 Nordeste 0 -- -- 46
2019-08-24 09:00:00 9.9 0 Calma 4 Sudoeste 0 -- -- 69
2019-08-24 08:00:00 6.5 0 Calma 3 Sudoeste 0 -- -- 81
2019-08-24 07:00:00 6.6 0 Calma 6 Sur 0 -- -- 79
2019-08-24 06:00:00 7.1 3 Sur 5 Sur 0 -- -- 75
2019-08-24 05:00:00 7.9 0 Calma 4 Sur 0 -- -- 71
2019-08-24 04:00:00 8.3 0 Calma 4 Sur 0 -- -- 69
2019-08-24 03:00:00 9.2 2 Sur 6 Sudoeste 0 -- -- 66
2019-08-24 02:00:00 9.8 2 Sur 6 Sur 0 -- -- 64
2019-08-24 01:00:00 11.1 0 Calma 6 Sur 0 -- -- 59
2019-08-24 00:00:00 12.2 4 Sur 9 Sur 0 -- -- 56
2019-08-23 23:00:00 14.4 4 Sur 6 Sur 0 -- -- 51
2019-08-23 22:00:00 18.9 3 Nordeste 13 Sur 0 -- -- 39
2019-08-23 21:00:00 22.4 8 Sur 14 Sudoeste 0 -- -- 33
2019-08-23 20:00:00 26.8 9 Sur 19 Sudoeste 0 -- -- 28
2019-08-23 19:00:00 26.3 9 Sur 24 Sudoeste 0 -- -- 30
2019-08-23 18:00:00 29.1 12 Sudoeste 27 Sur 0 -- -- 26
2019-08-23 17:00:00 28.3 13 Sur 30 Sudoeste 0 -- -- 28
2019-08-23 16:00:00 27.9 12 Sudoeste 28 Oeste 0 -- -- 29
2019-08-23 15:00:00 27.2 13 Sur 30 Sur 0 -- -- 31
2019-08-23 14:00:00 26.3 9 Sudoeste 24 Sur 0 -- -- 32
2019-08-23 13:00:00 25.3 13 Sur 27 Sudoeste 0 -- -- 33
2019-08-23 12:00:00 25.3 10 Sudoeste 20 Sur 0 -- -- 31
2019-08-23 11:00:00 21.7 3 Nordeste 6 Nordeste 0 -- -- 42
2019-08-23 10:00:00 17.5 0 Calma 4 Nordeste 0 -- -- 45
2019-08-23 09:00:00 8.4 0 Calma 5 Sudeste 0 -- -- 72
2019-08-23 08:00:00 4.9 0 Calma 5 Sur 0 -- -- 79
2019-08-23 07:00:00 4.6 0 Calma 5 Sudeste 0 -- -- 81
2019-08-23 06:00:00 5.3 3 Sur 6 Sudoeste 0 -- -- 76
2019-08-23 05:00:00 5.9 3 Sur 5 Sudoeste 0 -- -- 75
2019-08-23 04:00:00 6.5 3 Sur 5 Sur 0 -- -- 71
2019-08-23 03:00:00 7.5 0 Calma 3 Sur 0 -- -- 68
2019-08-23 02:00:00 8.7 2 Sur 5 Sudeste 0 -- -- 64
2019-08-23 01:00:00 10.3 2 Sur 5 Sur 0 -- -- 61
2019-08-23 00:00:00 12.2 2 Sur 8 Sur 0 -- -- 55
2019-08-22 23:00:00 13.6 4 Sur 8 Sur 0 -- -- 56
2019-08-22 22:00:00 17.7 3 Norte 10 Sur 0 -- -- 48
2019-08-22 21:00:00 21.6 8 Sur 12 Sudeste 0 -- -- 42
2019-08-22 20:00:00 25.9 6 Sudoeste 23 Sudoeste 0 -- -- 34
2019-08-22 19:00:00 26.9 13 Sur 24 Sudoeste 0 -- -- 33
2019-08-22 18:00:00 27.6 12 Sur 31 Sudoeste 0 -- -- 34
2019-08-22 17:00:00 27.2 14 Sur 27 Sur 0 -- -- 35
2019-08-22 16:00:00 26 11 Sudoeste 27 Sudoeste 0 -- -- 39
2019-08-22 15:00:00 26.8 13 Sur 25 Sudoeste 0 -- -- 39
2019-08-22 14:00:00 26.3 11 Sur 19 Sur 0 -- -- 41
2019-08-22 13:00:00 25.9 5 Sudoeste 21 Nordeste 0 -- -- 32
2019-08-22 12:00:00 -- 8 Este 19 Nordeste 0 -- -- --
2019-08-22 11:00:00 23.2 0 Calma 5 Nordeste 0 -- -- 51
2019-08-22 10:00:00 18.4 0 Calma 4 Norte 0 -- -- 70
2019-08-22 09:00:00 10.5 0 Calma 5 Sur 0 -- -- 99
2019-08-22 08:00:00 7.8 3 Sur 4 Sudoeste 0 -- -- 99
2019-08-22 07:00:00 7.9 0 Calma 5 Sudoeste 0 -- -- 96
2019-08-22 06:00:00 8.2 3 Sur 5 Sur 0 -- -- 97
2019-08-22 05:00:00 8.4 2 Sur 4 Este 0 -- -- 96
2019-08-22 04:00:00 10.2 0 Calma 9 Sudoeste 0 -- -- 90
2019-08-22 03:00:00 9.7 0 Calma 8 Sudeste 0 -- -- 87
2019-08-22 02:00:00 10.3 3 Este 7 Sudoeste 0 -- -- 77
2019-08-22 01:00:00 10.4 5 Este 10 Este 0 -- -- 81
2019-08-22 00:00:00 11 2 Sur 7 Sudoeste 0 -- -- 76
2019-08-21 23:00:00 12.3 3 Sur 6 Sur 0 -- -- 74
2019-08-21 22:00:00 14.6 4 Sur 8 Este 0 -- -- 63
2019-08-21 21:00:00 20.7 5 Este 29 Nordeste 0 -- -- 47
2019-08-21 20:00:00 23.8 3 Sudoeste 9 Norte 0 -- -- 39
2019-08-21 19:00:00 26 5 Noroeste 24 Norte 0 -- -- 31
2019-08-21 18:00:00 25 6 Este 14 Nordeste 0 -- -- 48
2019-08-21 17:00:00 22 3 Oeste 10 Sur 0 -- -- 58
2019-08-21 16:00:00 21.1 6 Sur 15 Sur 0 -- -- 62
2019-08-21 15:00:00 20.9 10 Sur 22 Sudoeste 0 -- -- 63
2019-08-21 14:00:00 22.4 13 Sudoeste 21 Sudoeste 0 -- -- 59
2019-08-21 13:00:00 21.4 9 Norte 18 Nordeste 0 -- -- 63
2019-08-21 12:00:00 19.4 11 Nordeste 16 Nordeste 0 -- -- 72
2019-08-21 11:00:00 19.3 10 Nordeste 14 Nordeste 0 -- -- 71
2019-08-21 10:00:00 16.5 6 Nordeste 13 Nordeste 0 -- -- 84
2019-08-21 09:00:00 15.4 4 Norte 15 Nordeste 0 -- -- 86
2019-08-21 08:00:00 15.3 3 Noroeste 13 Norte 0 -- -- 85
2019-08-21 07:00:00 13.5 5 Norte 12 Norte 0 -- -- 86
2019-08-21 06:00:00 11.7 2 Norte 9 Nordeste 0 -- -- 89
2019-08-21 05:00:00 10.4 3 Norte 7 Nordeste 0 -- -- 88
2019-08-21 04:00:00 10.6 2 Nordeste 8 Sudeste 0 -- -- 89
2019-08-21 03:00:00 10.9 3 Sur 8 Sudeste 0 -- -- 81
2019-08-21 02:00:00 12 3 Nordeste 12 Este 0 -- -- 70
2019-08-21 01:00:00 11.4 2 Sur 9 Sudeste 0 -- -- 66
2019-08-21 00:00:00 11.8 3 Sur 9 Sudeste 0 -- -- 63